sensor_id;sensor_type;location;lat;lon;timestamp;temperature;humidity
63397;SHT31;49532;45.068;38.928;2022-08-21T05:40:40;26.51;64.00
63397;SHT31;49532;45.068;38.928;2022-08-21T05:45:41;26.45;64.28
63397;SHT31;49532;45.068;38.928;2022-08-21T05:50:44;26.83;64.02
63397;SHT31;49532;45.068;38.928;2022-08-21T05:55:46;28.42;61.70
63397;SHT31;49532;45.068;38.928;2022-08-21T06:00:49;29.66;58.88
63397;SHT31;49532;45.068;38.928;2022-08-21T06:05:51;30.85;56.26
63397;SHT31;49532;45.068;38.928;2022-08-21T06:10:54;32.07;54.30
63397;SHT31;49532;45.068;38.928;2022-08-21T06:16:14;31.91;53.50
63397;SHT31;49532;45.068;38.928;2022-08-21T06:21:15;31.47;54.17
63397;SHT31;49532;45.068;38.928;2022-08-21T06:26:16;32.40;52.42
63397;SHT31;49532;45.068;38.928;2022-08-21T06:31:20;33.26;50.43
63397;SHT31;49532;45.068;38.928;2022-08-21T06:36:22;33.98;49.06
63397;SHT31;49532;45.068;38.928;2022-08-21T06:41:23;34.86;47.97
63397;SHT31;49532;45.068;38.928;2022-08-21T06:46:26;35.19;46.25
63397;SHT31;49532;45.068;38.928;2022-08-21T06:51:28;35.69;45.79
63397;SHT31;49532;45.068;38.928;2022-08-21T06:56:29;35.96;44.92
63397;SHT31;49532;45.068;38.928;2022-08-21T07:01:30;36.20;44.36
63397;SHT31;49532;45.068;38.928;2022-08-21T07:06:32;36.43;44.87
63397;SHT31;49532;45.068;38.928;2022-08-21T07:11:35;36.67;43.37
63397;SHT31;49532;45.068;38.928;2022-08-21T07:16:36;36.88;43.44
63397;SHT31;49532;45.068;38.928;2022-08-21T07:21:37;37.05;43.15
63397;SHT31;49532;45.068;38.928;2022-08-21T07:26:38;37.08;42.62
63397;SHT31;49532;45.068;38.928;2022-08-21T07:31:39;36.60;43.22
63397;SHT31;49532;45.068;38.928;2022-08-21T07:36:40;36.52;43.73
63397;SHT31;49532;45.068;38.928;2022-08-21T07:41:41;36.79;43.56
63397;SHT31;49532;45.068;38.928;2022-08-21T07:46:42;36.94;43.18
63397;SHT31;49532;45.068;38.928;2022-08-21T07:51:43;37.01;43.01
63397;SHT31;49532;45.068;38.928;2022-08-21T07:56:44;36.87;44.15
63397;SHT31;49532;45.068;38.928;2022-08-21T08:01:46;36.57;44.05
63397;SHT31;49532;45.068;38.928;2022-08-21T08:06:47;36.85;44.03
63397;SHT31;49532;45.068;38.928;2022-08-21T08:11:48;36.99;43.74
63397;SHT31;49532;45.068;38.928;2022-08-21T08:16:49;37.11;43.11
63397;SHT31;49532;45.068;38.928;2022-08-21T08:21:50;37.21;43.69
63397;SHT31;49532;45.068;38.928;2022-08-21T08:26:51;37.35;43.37
63397;SHT31;49532;45.068;38.928;2022-08-21T08:31:54;37.26;43.51
63397;SHT31;49532;45.068;38.928;2022-08-21T08:36:55;37.28;43.48
63397;SHT31;49532;45.068;38.928;2022-08-21T08:42:14;37.21;43.66
63397;SHT31;49532;45.068;38.928;2022-08-21T08:47:17;37.18;43.83
63397;SHT31;49532;45.068;38.928;2022-08-21T08:52:22;37.12;43.08
63397;SHT31;49532;45.068;38.928;2022-08-21T08:57:27;37.03;43.76
63397;SHT31;49532;45.068;38.928;2022-08-21T09:02:28;36.81;44.27
63397;SHT31;49532;45.068;38.928;2022-08-21T09:29:01;35.73;45.80
63397;SHT31;49532;45.068;38.928;2022-08-21T09:34:09;35.61;45.53
63397;SHT31;49532;45.068;38.928;2022-08-21T09:39:21;35.42;45.78
63397;SHT31;49532;45.068;38.928;2022-08-21T09:44:31;35.35;45.66
63397;SHT31;49532;45.068;38.928;2022-08-21T09:49:36;35.24;46.39
63397;SHT31;49532;45.068;38.928;2022-08-21T09:54:40;35.14;46.98
63397;SHT31;49532;45.068;38.928;2022-08-21T09:59:43;35.05;47.10
63397;SHT31;49532;45.068;38.928;2022-08-21T10:04:50;34.91;47.34
63397;SHT31;49532;45.068;38.928;2022-08-21T10:10:13;34.74;47.52
63397;SHT31;49532;45.068;38.928;2022-08-21T10:21:04;34.53;48.35
63397;SHT31;49532;45.068;38.928;2022-08-21T10:31:32;34.31;48.74
63397;SHT31;49532;45.068;38.928;2022-08-21T10:42:28;33.91;49.34
63397;SHT31;49532;45.068;38.928;2022-08-21T10:47:43;33.82;48.73
63397;SHT31;49532;45.068;38.928;2022-08-21T10:53:02;33.81;49.65
63397;SHT31;49532;45.068;38.928;2022-08-21T10:58:11;33.79;49.49
63397;SHT31;49532;45.068;38.928;2022-08-21T11:03:17;33.82;49.11
63397;SHT31;49532;45.068;38.928;2022-08-21T11:08:33;33.75;49.52
63397;SHT31;49532;45.068;38.928;2022-08-21T11:19:27;33.72;49.59
63397;SHT31;49532;45.068;38.928;2022-08-21T11:29:38;33.76;49.53
63397;SHT31;49532;45.068;38.928;2022-08-21T11:34:58;33.76;49.20
63397;SHT31;49532;45.068;38.928;2022-08-21T11:45:47;33.57;49.44
63397;SHT31;49532;45.068;38.928;2022-08-21T11:50:50;33.55;49.86
63397;SHT31;49532;45.068;38.928;2022-08-21T11:56:13;33.57;49.92
63397;SHT31;49532;45.068;38.928;2022-08-21T12:01:19;33.64;49.89
63397;SHT31;49532;45.068;38.928;2022-08-21T12:06:37;33.53;49.71
63397;SHT31;49532;45.068;38.928;2022-08-21T12:11:51;33.54;50.32
63397;SHT31;49532;45.068;38.928;2022-08-21T12:17:05;33.58;50.14
63397;SHT31;49532;45.068;38.928;2022-08-21T12:22:10;33.54;49.86
63397;SHT31;49532;45.068;38.928;2022-08-21T12:27:26;33.48;50.26
63397;SHT31;49532;45.068;38.928;2022-08-21T12:32:46;33.45;49.95
63397;SHT31;49532;45.068;38.928;2022-08-21T12:43:43;33.41;50.17
63397;SHT31;49532;45.068;38.928;2022-08-21T12:54:31;33.34;50.80
63397;SHT31;49532;45.068;38.928;2022-08-21T12:59:38;33.26;51.12
63397;SHT31;49532;45.068;38.928;2022-08-21T13:04:40;33.23;51.44
63397;SHT31;49532;45.068;38.928;2022-08-21T13:09:54;33.20;51.51
63397;SHT31;49532;45.068;38.928;2022-08-21T13:14:58;33.11;51.99
63397;SHT31;49532;45.068;38.928;2022-08-21T13:20:03;33.13;52.57
63397;SHT31;49532;45.068;38.928;2022-08-21T13:25:10;33.13;52.35
63397;SHT31;49532;45.068;38.928;2022-08-21T13:30:20;33.07;52.46
63397;SHT31;49532;45.068;38.928;2022-08-21T13:35:28;33.06;52.64
63397;SHT31;49532;45.068;38.928;2022-08-21T13:40:32;33.03;52.68
63397;SHT31;49532;45.068;38.928;2022-08-21T13:45:44;32.97;52.69
63397;SHT31;49532;45.068;38.928;2022-08-21T13:50:45;32.90;52.54
63397;SHT31;49532;45.068;38.928;2022-08-21T13:55:48;32.90;52.48
63397;SHT31;49532;45.068;38.928;2022-08-21T14:00:50;32.84;52.06
63397;SHT31;49532;45.068;38.928;2022-08-21T14:05:52;32.80;51.84
63397;SHT31;49532;45.068;38.928;2022-08-21T14:10:53;32.76;51.95
63397;SHT31;49532;45.068;38.928;2022-08-21T14:15:59;32.73;52.27
63397;SHT31;49532;45.068;38.928;2022-08-21T14:21:08;32.65;52.60
63397;SHT31;49532;45.068;38.928;2022-08-21T14:26:10;32.58;52.39
63397;SHT31;49532;45.068;38.928;2022-08-21T14:31:17;32.55;52.13
63397;SHT31;49532;45.068;38.928;2022-08-21T14:36:18;32.46;52.32
63397;SHT31;49532;45.068;38.928;2022-08-21T14:41:22;32.46;52.48
63397;SHT31;49532;45.068;38.928;2022-08-21T14:46:26;32.43;52.08
63397;SHT31;49532;45.068;38.928;2022-08-21T14:51:28;32.42;52.16
63397;SHT31;49532;45.068;38.928;2022-08-21T14:56:29;32.39;52.03
63397;SHT31;49532;45.068;38.928;2022-08-21T15:01:32;32.38;52.17
63397;SHT31;49532;45.068;38.928;2022-08-21T15:06:33;32.38;52.25
63397;SHT31;49532;45.068;38.928;2022-08-21T15:11:35;32.32;52.49
63397;SHT31;49532;45.068;38.928;2022-08-21T15:16:36;32.27;52.64
63397;SHT31;49532;45.068;38.928;2022-08-21T15:21:37;32.19;52.69
63397;SHT31;49532;45.068;38.928;2022-08-21T15:26:38;32.09;52.84
63397;SHT31;49532;45.068;38.928;2022-08-21T15:32:24;32.00;53.34
63397;SHT31;49532;45.068;38.928;2022-08-21T15:37:25;31.91;53.42
63397;SHT31;49532;45.068;38.928;2022-08-21T15:42:27;31.84;53.53
63397;SHT31;49532;45.068;38.928;2022-08-21T15:47:31;31.76;54.09
63397;SHT31;49532;45.068;38.928;2022-08-21T15:52:34;31.69;54.30
63397;SHT31;49532;45.068;38.928;2022-08-21T15:57:37;31.64;54.61
63397;SHT31;49532;45.068;38.928;2022-08-21T16:02:40;31.59;54.80
63397;SHT31;49532;45.068;38.928;2022-08-21T16:07:44;31.51;55.03
63397;SHT31;49532;45.068;38.928;2022-08-21T16:12:51;31.41;55.08
63397;SHT31;49532;45.068;38.928;2022-08-21T16:17:54;31.34;55.36
63397;SHT31;49532;45.068;38.928;2022-08-21T16:22:56;31.23;55.82
63397;SHT31;49532;45.068;38.928;2022-08-21T16:28:00;31.09;56.21
63397;SHT31;49532;45.068;38.928;2022-08-21T16:33:03;30.96;56.37
63397;SHT31;49532;45.068;38.928;2022-08-21T16:38:05;30.85;56.77
63397;SHT31;49532;45.068;38.928;2022-08-21T16:43:06;30.76;57.21
63397;SHT31;49532;45.068;38.928;2022-08-21T16:48:07;30.65;57.34
63397;SHT31;49532;45.068;38.928;2022-08-21T16:53:09;30.58;57.77
63397;SHT31;49532;45.068;38.928;2022-08-21T16:58:29;30.45;57.96
63397;SHT31;49532;45.068;38.928;2022-08-21T17:03:35;30.38;58.27
63397;SHT31;49532;45.068;38.928;2022-08-21T17:08:37;30.30;58.54
63397;SHT31;49532;45.068;38.928;2022-08-21T17:13:38;30.24;58.84
63397;SHT31;49532;45.068;38.928;2022-08-21T17:18:40;30.13;59.22
63397;SHT31;49532;45.068;38.928;2022-08-21T17:23:42;30.06;59.54
63397;SHT31;49532;45.068;38.928;2022-08-21T17:28:43;29.99;59.90
63397;SHT31;49532;45.068;38.928;2022-08-21T17:33:47;29.89;60.01
63397;SHT31;49532;45.068;38.928;2022-08-21T17:38:53;29.79;60.08
63397;SHT31;49532;45.068;38.928;2022-08-21T17:43:54;29.73;60.08
63397;SHT31;49532;45.068;38.928;2022-08-21T17:48:56;29.67;60.20
63397;SHT31;49532;45.068;38.928;2022-08-21T17:53:57;29.62;60.06
63397;SHT31;49532;45.068;38.928;2022-08-21T17:58:59;29.58;60.19
63397;SHT31;49532;45.068;38.928;2022-08-21T18:04:00;29.55;60.22
63397;SHT31;49532;45.068;38.928;2022-08-21T18:09:03;29.52;60.46
63397;SHT31;49532;45.068;38.928;2022-08-21T18:14:04;29.43;60.42
63397;SHT31;49532;45.068;38.928;2022-08-21T18:19:11;29.41;60.60
63397;SHT31;49532;45.068;38.928;2022-08-21T18:24:15;29.32;60.31
63397;SHT31;49532;45.068;38.928;2022-08-21T18:29:18;29.29;60.30
63397;SHT31;49532;45.068;38.928;2022-08-21T18:34:30;29.24;60.45
63397;SHT31;49532;45.068;38.928;2022-08-21T18:39:34;29.15;60.40
63397;SHT31;49532;45.068;38.928;2022-08-21T18:44:37;29.08;60.07
63397;SHT31;49532;45.068;38.928;2022-08-21T18:49:39;29.03;59.01
63397;SHT31;49532;45.068;38.928;2022-08-21T18:54:40;29.04;57.30
63397;SHT31;49532;45.068;38.928;2022-08-21T18:59:41;29.07;55.45
63397;SHT31;49532;45.068;38.928;2022-08-21T19:04:43;29.12;54.38
63397;SHT31;49532;45.068;38.928;2022-08-21T19:09:44;29.14;53.72
63397;SHT31;49532;45.068;38.928;2022-08-21T19:14:45;29.16;52.86
63397;SHT31;49532;45.068;38.928;2022-08-21T19:19:46;29.21;52.08
63397;SHT31;49532;45.068;38.928;2022-08-21T19:24:48;29.16;51.19
63397;SHT31;49532;45.068;38.928;2022-08-21T19:29:48;29.15;49.44
63397;SHT31;49532;45.068;38.928;2022-08-21T19:34:51;29.12;50.17
63397;SHT31;49532;45.068;38.928;2022-08-21T19:39:52;29.10;48.80
63397;SHT31;49532;45.068;38.928;2022-08-21T19:44:53;29.03;48.27
63397;SHT31;49532;45.068;38.928;2022-08-21T19:49:58;28.98;48.76
63397;SHT31;49532;45.068;38.928;2022-08-21T19:55:00;28.94;48.62
63397;SHT31;49532;45.068;38.928;2022-08-21T20:00:01;28.86;48.59
63397;SHT31;49532;45.068;38.928;2022-08-21T20:05:08;28.81;48.86
63397;SHT31;49532;45.068;38.928;2022-08-21T20:10:09;28.71;48.88
63397;SHT31;49532;45.068;38.928;2022-08-21T20:15:11;28.64;48.73
63397;SHT31;49532;45.068;38.928;2022-08-21T20:20:12;28.56;48.89
63397;SHT31;49532;45.068;38.928;2022-08-21T20:25:13;28.49;49.09
63397;SHT31;49532;45.068;38.928;2022-08-21T20:30:16;28.42;48.96
63397;SHT31;49532;45.068;38.928;2022-08-21T20:35:17;28.36;48.87
63397;SHT31;49532;45.068;38.928;2022-08-21T20:40:18;28.33;49.07
63397;SHT31;49532;45.068;38.928;2022-08-21T20:45:21;28.23;49.04
63397;SHT31;49532;45.068;38.928;2022-08-21T20:50:25;28.15;49.35
63397;SHT31;49532;45.068;38.928;2022-08-21T20:55:31;28.08;49.40
63397;SHT31;49532;45.068;38.928;2022-08-21T21:00:37;28.01;49.53
